Time;durP1;ratioP1;P1;durP2;ratioP2;P2;SDS_P1;SDS_P2;PMS_P1;PMS_P2;Temp;Humidity;BMP_temperature;BMP_pressure;BME280_temperature;BME280_humidity;BME280_pressure;Samples;Min_cycle;Max_cycle;Signal;HPM_P1;HPM_P2
2022/05/16 00:01:34;;;;;;;8.35;3.95;;;;;;;10.04;67.78;99122.02;2127863;83;21110;-87
2022/05/16 00:04:36;;;;;;;5.15;3.80;;;;;;;9.96;68.06;99126.27;2114780;83;21081;-86
2022/05/16 00:07:38;;;;;;;7.10;3.67;;;;;;;10.02;68.50;99133.14;2102974;83;21080;-87
2022/05/16 00:10:39;;;;;;;6.33;3.55;;;;;;;10.03;68.48;99123.00;2121868;83;21090;-87
2022/05/16 00:13:41;;;;;;;6.75;4.42;;;;;;;10.05;68.82;99123.64;2105234;83;21556;-87
2022/05/16 00:16:42;;;;;;;8.73;5.03;;;;;;;10.04;68.91;99130.68;2150884;81;21016;-87
2022/05/16 00:19:44;;;;;;;7.33;4.55;;;;;;;9.97;69.04;99123.19;2145384;81;21128;-87
2022/05/16 00:22:46;;;;;;;11.63;5.55;;;;;;;9.91;69.10;99117.30;2144908;81;21076;-87
2022/05/16 00:25:47;;;;;;;5.50;4.05;;;;;;;9.81;69.42;99117.48;2144342;81;21073;-87
2022/05/16 00:28:49;;;;;;;5.17;3.42;;;;;;;9.80;69.41;99107.19;2135721;82;21496;-86
2022/05/16 00:31:53;;;;;;;6.03;3.75;;;;;;;9.74;69.72;99107.83;2153127;82;21101;-87
2022/05/16 00:34:54;;;;;;;5.70;4.22;;;;;;;9.68;69.84;99111.42;2136399;82;21132;-87
2022/05/16 00:37:56;;;;;;;6.47;4.17;;;;;;;9.57;71.86;99118.78;2141586;82;21614;-86
2022/05/16 00:40:58;;;;;;;8.98;4.40;;;;;;;9.46;70.87;99116.49;2147213;82;21491;-85
2022/05/16 00:43:59;;;;;;;4.37;3.98;;;;;;;9.48;71.36;99117.14;2136382;82;20983;-86
2022/05/16 00:47:02;;;;;;;6.58;4.28;;;;;;;9.50;71.32;99114.69;2137879;82;21060;-86
2022/05/16 00:50:04;;;;;;;8.43;4.50;;;;;;;9.46;71.27;99126.95;2132307;82;21013;-86
2022/05/16 00:53:05;;;;;;;7.08;4.08;;;;;;;9.32;71.00;99128.39;2148722;82;21013;-86
2022/05/16 00:56:07;;;;;;;6.72;4.10;;;;;;;9.19;71.74;99125.44;2128951;82;21153;-86
2022/05/16 00:59:08;;;;;;;4.62;4.22;;;;;;;9.10;71.77;99128.03;2141933;82;21108;-86
2022/05/16 01:05:30;;;;;;;6.60;4.28;;;;;;;8.96;72.62;99127.36;2178248;80;21076;-86
2022/05/16 01:08:31;;;;;;;8.78;4.55;;;;;;;8.99;73.17;99132.75;2173426;80;21536;-86
2022/05/16 01:11:33;;;;;;;8.53;4.85;;;;;;;8.89;73.01;99132.87;2186804;80;21616;-86
2022/05/16 01:14:35;;;;;;;5.53;3.67;;;;;;;8.83;73.46;99131.70;2183608;80;21048;-86
2022/05/16 01:17:37;;;;;;;8.35;4.25;;;;;;;8.86;73.71;99135.78;2183466;80;21561;-85
2022/05/16 01:20:39;;;;;;;6.75;3.87;;;;;;;8.90;73.93;99129.78;2181060;80;21538;-85
2022/05/16 01:23:40;;;;;;;7.40;4.60;;;;;;;8.89;74.19;99135.98;2193916;80;21067;-85
2022/05/16 01:26:42;;;;;;;6.17;4.05;;;;;;;8.86;74.05;99129.75;2180176;80;21077;-85
2022/05/16 01:29:44;;;;;;;6.42;4.12;;;;;;;8.77;74.28;99124.98;2182331;80;21085;-86
2022/05/16 01:32:45;;;;;;;5.60;4.55;;;;;;;8.71;74.39;99131.67;2192890;80;21052;-85
2022/05/16 01:35:47;;;;;;;6.25;3.98;;;;;;;8.69;74.47;99132.32;2198345;80;21025;-85
2022/05/16 01:38:49;;;;;;;6.00;3.83;;;;;;;8.57;74.35;99134.86;2133864;83;21607;-85
2022/05/16 01:41:51;;;;;;;6.45;3.95;;;;;;;8.59;75.35;99134.20;2125147;84;21160;-86
2022/05/16 01:44:52;;;;;;;5.65;4.20;;;;;;;8.63;75.44;99132.13;2188154;80;21588;-85
2022/05/16 01:47:54;;;;;;;7.72;4.40;;;;;;;8.69;75.37;99136.23;2204553;80;21043;-85
2022/05/16 01:50:56;;;;;;;9.40;4.90;;;;;;;8.71;75.68;99139.50;2136394;80;21230;-86
2022/05/16 01:53:58;;;;;;;5.25;4.08;;;;;;;8.74;75.57;99140.97;2141189;80;21472;-86
2022/05/16 01:56:59;;;;;;;7.17;4.08;;;;;;;8.73;75.61;99141.46;2134678;83;21560;-86
2022/05/16 02:00:01;;;;;;;6.50;5.00;;;;;;;8.69;75.69;99148.48;2142569;82;21599;-85
2022/05/16 02:03:05;;;;;;;7.62;5.72;;;;;;;8.65;76.07;99144.03;2147364;82;21097;-86
2022/05/16 02:06:06;;;;;;;11.15;6.12;;;;;;;8.63;75.91;99142.56;2136339;82;21174;-86
2022/05/16 02:09:08;;;;;;;8.13;5.92;;;;;;;8.47;76.00;99136.77;2109870;83;21149;-86
2022/05/16 02:12:10;;;;;;;13.95;6.08;;;;;;;8.32;76.17;99144.80;2113877;84;21125;-85
2022/05/16 02:15:12;;;;;;;8.75;4.72;;;;;;;8.23;77.01;99139.56;2116830;83;21154;-86
2022/05/16 02:18:13;;;;;;;11.80;5.92;;;;;;;8.25;77.23;99141.53;2105178;83;21128;-86
2022/05/16 02:24:38;;;;;;;8.00;4.45;;;;;;;8.37;77.44;99146.51;2126720;83;21069;-85
2022/05/16 02:27:40;;;;;;;6.87;4.53;;;;;;;8.38;77.46;99146.34;2119097;83;21053;-86
2022/05/16 02:30:45;;;;;;;10.48;4.78;;;;;;;8.37;77.60;99143.41;2111565;83;21065;-86
2022/05/16 02:33:46;;;;;;;7.70;3.87;;;;;;;8.37;77.42;99143.41;2109831;83;21099;-85
2022/05/16 02:36:48;;;;;;;7.42;4.17;;;;;;;8.38;77.54;99145.53;2101722;83;21121;-86
2022/05/16 02:39:50;;;;;;;9.45;3.90;;;;;;;8.34;77.48;99149.41;2113869;83;21025;-86
2022/05/16 02:42:52;;;;;;;11.83;4.92;;;;;;;8.31;77.60;99149.69;2108943;83;21112;-87
2022/05/16 02:45:54;;;;;;;9.28;3.83;;;;;;;8.27;77.61;99150.50;2112959;83;21013;-88
2022/05/16 02:48:56;;;;;;;5.58;3.62;;;;;;;8.20;77.86;99152.89;2117788;83;21036;-85
2022/05/16 02:51:57;;;;;;;10.32;3.87;;;;;;;8.17;78.39;99151.09;2113867;83;21537;-81
2022/05/16 02:55:00;;;;;;;7.83;3.72;;;;;;;8.22;78.70;99150.95;2114058;83;21056;-85
2022/05/16 02:58:02;;;;;;;6.78;4.05;;;;;;;8.37;78.97;99153.03;2107654;83;21128;-82
2022/05/16 03:01:04;;;;;;;5.70;3.62;;;;;;;8.51;78.82;99147.25;2108578;83;21083;-83
2022/05/16 03:04:06;;;;;;;7.22;3.75;;;;;;;8.60;78.51;99152.84;2124766;83;21022;-83
2022/05/16 03:07:07;;;;;;;5.65;3.95;;;;;;;8.63;77.99;99153.82;2100716;83;21033;-85
2022/05/16 03:10:11;;;;;;;5.85;4.00;;;;;;;8.74;78.17;99151.42;2107718;83;21022;-84
2022/05/16 03:13:12;;;;;;;4.80;3.52;;;;;;;8.84;78.02;99150.80;2110598;83;21599;-88
2022/05/16 03:16:14;;;;;;;4.85;4.15;;;;;;;9.01;77.92;99145.97;2103659;83;21051;-85
2022/05/16 03:19:16;;;;;;;6.67;3.62;;;;;;;9.14;76.90;99153.33;2102990;83;21085;-84
2022/05/16 03:22:17;;;;;;;6.10;4.00;;;;;;;9.16;76.66;99152.71;2111756;83;21084;-81
2022/05/16 03:25:19;;;;;;;5.40;4.05;;;;;;;9.46;76.43;99152.59;2114948;83;21081;-81
2022/05/16 03:28:21;;;;;;;15.13;4.17;;;;;;;9.93;76.22;99151.95;2111628;83;21097;-82
2022/05/16 03:31:23;;;;;;;7.75;4.65;;;;;;;10.41;75.24;99155.01;2112018;83;21072;-81
2022/05/16 03:34:24;;;;;;;6.25;4.12;;;;;;;10.98;74.18;99155.31;2109503;83;21117;-81
2022/05/16 03:37:26;;;;;;;4.90;4.45;;;;;;;12.02;70.48;99157.91;2108562;83;21615;-81
2022/05/16 03:40:43;;;;;;;11.28;6.60;;;;;;;12.02;70.48;99157.91;2120501;83;21574;-84
2022/05/16 03:43:45;;;;;;;15.88;5.70;;;;;;;12.36;68.17;99162.67;2110016;83;21080;-83
2022/05/16 03:46:47;;;;;;;9.18;5.42;;;;;;;12.71;68.35;99165.05;2120451;83;21102;-82
2022/05/16 03:49:48;;;;;;;6.53;5.35;;;;;;;13.33;66.22;99171.20;2105976;83;21052;-82
2022/05/16 03:52:50;;;;;;;10.90;5.37;;;;;;;14.07;65.75;99170.87;2107907;83;21544;-83
2022/05/16 03:55:52;;;;;;;9.05;5.08;;;;;;;14.80;63.40;99166.41;2115460;83;21141;-84
2022/05/16 03:58:53;;;;;;;10.55;4.90;;;;;;;15.52;61.85;99166.86;2128983;83;21602;-82
2022/05/16 04:01:56;;;;;;;8.78;4.83;;;;;;;16.01;60.31;99167.05;2104098;83;21065;-83
2022/05/16 04:04:57;;;;;;;6.80;5.05;;;;;;;16.81;58.82;99163.27;2111711;83;21061;-82
2022/05/16 04:07:59;;;;;;;10.50;4.80;;;;;;;17.18;57.03;99164.84;2116372;83;21074;-82
2022/05/16 04:11:01;;;;;;;8.35;5.37;;;;;;;17.83;54.18;99162.36;2115204;83;21569;-81
2022/05/16 04:14:03;;;;;;;7.22;4.65;;;;;;;18.03;54.73;99162.71;2118210;83;21611;-82
2022/05/16 04:17:04;;;;;;;6.17;4.20;;;;;;;18.81;53.54;99160.31;2107888;83;21067;-82
2022/05/16 04:20:06;;;;;;;8.55;4.78;;;;;;;19.43;51.79;99160.16;2109857;83;21595;-82
2022/05/16 04:23:08;;;;;;;6.33;5.05;;;;;;;20.10;50.89;99157.59;2127619;83;21064;-82
2022/05/16 04:26:10;;;;;;;8.70;4.35;;;;;;;20.92;49.33;99153.55;2109032;83;21587;-82
2022/05/16 04:29:12;;;;;;;7.92;4.78;;;;;;;21.52;47.77;99153.11;2106793;83;21484;-84
2022/05/16 04:32:13;;;;;;;10.85;5.00;;;;;;;22.19;46.46;99154.20;2117491;83;21600;-82
2022/05/16 04:35:15;;;;;;;10.53;4.30;;;;;;;22.77;44.93;99155.52;2104036;83;22205;-82
2022/05/16 04:38:17;;;;;;;10.43;4.58;;;;;;;23.12;43.76;99149.83;2102309;83;20994;-81
2022/05/16 04:44:39;;;;;;;8.43;6.67;;;;;;;23.97;41.32;99161.63;2108914;83;21030;-85
2022/05/16 04:47:41;;;;;;;7.80;5.75;;;;;;;24.48;40.37;99161.98;2108881;83;21156;-86
2022/05/16 04:50:42;;;;;;;10.25;7.05;;;;;;;24.89;38.66;99162.46;2117530;83;21589;-81
2022/05/16 04:53:44;;;;;;;9.23;7.53;;;;;;;24.78;38.56;99165.34;2107741;83;21646;-81
2022/05/16 04:56:46;;;;;;;11.75;6.83;;;;;;;24.76;38.28;99165.60;2102374;83;20985;-80
2022/05/16 04:59:49;;;;;;;12.75;6.83;;;;;;;24.61;37.60;99166.35;2104510;83;21151;-81
2022/05/16 05:02:51;;;;;;;12.07;6.87;;;;;;;24.22;37.48;99175.70;2110195;83;21129;-80
2022/05/16 05:05:53;;;;;;;9.43;5.92;;;;;;;23.82;37.64;99171.66;2110354;83;21577;-81
2022/05/16 05:08:54;;;;;;;10.90;6.72;;;;;;;23.71;36.06;99173.45;2109583;83;21136;-81
2022/05/16 05:15:17;;;;;;;12.93;7.83;;;;;;;21.91;37.38;99179.06;2112636;83;21104;-81
2022/05/16 05:18:18;;;;;;;14.38;9.25;;;;;;;21.64;38.16;99171.69;2113526;83;21029;-80
2022/05/16 05:21:20;;;;;;;14.85;9.00;;;;;;;21.67;38.37;99173.89;2113189;83;21568;-78
2022/05/16 05:24:22;;;;;;;15.80;9.68;;;;;;;21.60;38.56;99169.23;2112401;83;21034;-79
2022/05/16 05:27:23;;;;;;;9.80;5.83;;;;;;;21.23;39.23;99162.14;2108140;83;20986;-79
2022/05/16 05:30:25;;;;;;;10.03;5.55;;;;;;;21.09;39.42;99158.94;2107847;83;21078;-79
2022/05/16 05:33:27;;;;;;;12.65;5.03;;;;;;;21.11;38.97;99157.36;2117995;83;21064;-76
2022/05/16 05:36:29;;;;;;;8.53;4.33;;;;;;;20.76;39.37;99159.62;2110500;83;21073;-79
2022/05/16 05:39:31;;;;;;;8.00;3.65;;;;;;;20.78;39.51;99159.38;2105952;83;21591;-80
2022/05/16 05:42:36;;;;;;;6.92;3.85;;;;;;;20.75;39.34;99161.97;2120229;83;21494;-80
2022/05/16 05:45:38;;;;;;;5.17;4.67;;;;;;;20.58;39.75;99156.59;2097487;83;21541;-79
2022/05/16 05:48:39;;;;;;;6.15;3.50;;;;;;;20.68;39.95;99159.45;2110388;83;21064;-80
2022/05/16 05:51:41;;;;;;;6.45;4.22;;;;;;;20.53;39.62;99157.80;2101912;83;21507;-81
2022/05/16 05:54:43;;;;;;;6.72;4.30;;;;;;;20.53;39.69;99160.97;2110635;83;21579;-80
2022/05/16 05:57:45;;;;;;;4.35;3.95;;;;;;;20.65;39.65;99159.91;2108367;83;21648;-80
2022/05/16 06:00:46;;;;;;;4.83;4.35;;;;;;;20.88;40.33;99158.26;2107151;83;21628;-80
2022/05/16 06:03:48;;;;;;;13.15;4.83;;;;;;;20.86;39.55;99167.00;2110788;83;21567;-81
2022/05/16 06:06:50;;;;;;;7.45;6.00;;;;;;;20.81;40.71;99161.04;2116887;83;21080;-79
2022/05/16 06:09:52;;;;;;;7.40;5.70;;;;;;;20.94;40.91;99166.11;2109938;83;21017;-79
2022/05/16 06:12:54;;;;;;;6.87;4.03;;;;;;;21.19;39.87;99171.63;2118073;83;21089;-80
2022/05/16 06:15:56;;;;;;;5.35;4.83;;;;;;;21.14;39.49;99168.89;2097438;84;21116;-80
2022/05/16 06:18:58;;;;;;;8.05;5.30;;;;;;;21.15;39.83;99163.32;2114012;83;21129;-79
2022/05/16 06:22:00;;;;;;;6.33;4.42;;;;;;;21.05;40.46;99162.32;2113632;83;21086;-80
2022/05/16 06:28:21;;;;;;;7.20;3.22;;;;;;;21.32;40.44;99170.06;2110335;83;21056;-81
2022/05/16 06:31:23;;;;;;;7.90;3.52;;;;;;;21.51;39.95;99166.15;2111640;83;21025;-76
2022/05/16 06:34:25;;;;;;;3.77;2.33;;;;;;;21.71;39.00;99173.69;2116356;83;21466;-77
2022/05/16 06:37:27;;;;;;;2.87;1.82;;;;;;;21.60;39.20;99173.23;2118278;83;21586;-80
2022/05/16 06:40:28;;;;;;;5.10;2.22;;;;;;;21.44;38.71;99166.81;2111052;83;21122;-80
2022/05/16 06:43:30;;;;;;;4.33;2.45;;;;;;;21.37;38.97;99169.34;2104007;83;21123;-81
2022/05/16 06:46:32;;;;;;;3.00;2.58;;;;;;;21.36;38.85;99171.20;2117813;83;21076;-79
2022/05/16 06:49:34;;;;;;;5.35;3.62;;;;;;;21.32;39.17;99170.06;2104876;83;21118;-82
2022/05/16 06:52:35;;;;;;;5.55;3.25;;;;;;;21.30;40.10;99173.47;2106303;83;21620;-80
2022/05/16 06:55:37;;;;;;;4.75;3.08;;;;;;;21.28;40.33;99170.23;2114709;83;21040;-80
2022/05/16 06:58:39;;;;;;;6.47;3.30;;;;;;;21.33;39.69;99174.87;2102310;83;21021;-81
2022/05/16 07:01:41;;;;;;;4.85;3.00;;;;;;;21.36;39.89;99175.72;2108126;83;21136;-81
2022/05/16 07:04:43;;;;;;;3.15;2.22;;;;;;;21.50;39.84;99175.19;2112650;83;21057;-82
2022/05/16 07:07:44;;;;;;;4.53;1.55;;;;;;;21.58;39.77;99170.81;2103576;83;21547;-83
2022/05/16 07:10:48;;;;;;;3.22;1.98;;;;;;;21.50;40.03;99171.20;2104692;83;21044;-84
2022/05/16 07:13:50;;;;;;;3.35;1.82;;;;;;;21.43;40.37;99166.53;2108804;83;21037;-80
2022/05/16 07:16:51;;;;;;;3.35;1.70;;;;;;;21.47;39.33;99166.85;2105536;83;21076;-80
2022/05/16 07:19:53;;;;;;;2.95;1.30;;;;;;;21.51;39.10;99162.16;2114490;83;21580;-80
2022/05/16 07:22:58;;;;;;;2.37;1.37;;;;;;;21.52;38.71;99165.10;2107499;83;21021;-80
2022/05/16 07:29:19;;;;;;;3.55;1.10;;;;;;;21.48;37.80;99165.28;2095282;84;21061;-82
2022/05/16 07:32:20;;;;;;;2.55;1.47;;;;;;;21.50;37.86;99171.72;2165002;80;21607;-82
2022/05/16 07:35:22;;;;;;;3.22;1.87;;;;;;;21.39;38.49;99167.23;2151937;81;21653;-83
2022/05/16 07:38:25;;;;;;;1.90;1.50;;;;;;;21.35;38.75;99162.11;2146006;82;21052;-82
2022/05/16 07:41:29;;;;;;;2.00;1.20;;;;;;;21.39;39.17;99165.91;2152550;81;21119;-81
2022/05/16 07:44:30;;;;;;;1.42;1.00;;;;;;;21.39;39.29;99163.23;2155043;81;21600;-82
2022/05/16 07:47:32;;;;;;;1.72;1.02;;;;;;;21.31;37.99;99160.98;2162009;80;21055;-82
2022/05/16 07:50:36;;;;;;;2.25;1.25;;;;;;;21.31;38.02;99165.79;2171848;80;21601;-81
2022/05/16 07:53:38;;;;;;;2.02;1.45;;;;;;;21.32;38.05;99163.94;2117640;83;21109;-80
2022/05/16 07:56:39;;;;;;;0.93;0.70;;;;;;;21.38;38.09;99166.43;2169216;80;21017;-79
2022/05/16 07:59:42;;;;;;;2.45;0.88;;;;;;;21.49;38.24;99167.45;2127482;82;21058;-82
2022/05/16 08:02:45;;;;;;;3.40;1.17;;;;;;;21.63;38.54;99171.41;2164706;81;21052;-82
2022/05/16 08:05:47;;;;;;;1.87;1.12;;;;;;;21.77;37.97;99170.07;2163584;80;21080;-83
2022/05/16 08:12:10;;;;;;;2.92;1.20;;;;;;;21.84;37.98;99168.03;2172455;80;21028;-81
2022/05/16 08:15:12;;;;;;;1.50;1.37;;;;;;;21.85;37.51;99168.34;2184457;80;21552;-82
2022/05/16 08:18:14;;;;;;;2.27;1.37;;;;;;;21.76;37.13;99170.28;2165343;80;21098;-80
2022/05/16 08:21:16;;;;;;;3.50;1.35;;;;;;;21.69;37.41;99175.79;2151507;81;21165;-82
2022/05/16 08:24:18;;;;;;;2.98;1.20;;;;;;;21.71;37.88;99175.02;2162601;81;21089;-81
2022/05/16 08:27:20;;;;;;;4.15;1.60;;;;;;;21.74;37.74;99171.05;2163476;81;21061;-86
2022/05/16 08:30:22;;;;;;;3.72;1.05;;;;;;;21.78;37.34;99170.87;2170175;81;21045;-80
2022/05/16 08:33:23;;;;;;;1.57;0.90;;;;;;;21.85;37.92;99172.84;2165472;81;21533;-80
2022/05/16 08:39:52;;;;;;;2.52;1.10;;;;;;;21.92;37.52;99164.16;2158959;82;21001;-81
2022/05/16 08:42:54;;;;;;;;;;;;;;;21.94;37.37;99166.05;2181443;81;21077;-81
2022/05/16 08:45:56;;;;;;;5.75;1.57;;;;;;;22.00;37.13;99165.09;2176150;80;20146;-80
2022/05/16 08:48:58;;;;;;;1.70;1.15;;;;;;;22.07;37.40;99164.97;2166674;80;21058;-81
2022/05/16 08:52:00;;;;;;;1.92;0.80;;;;;;;22.14;36.80;99165.62;2156553;80;21047;-83
2022/05/16 08:55:03;;;;;;;4.17;1.50;;;;;;;22.30;36.67;99158.62;2152047;80;21011;-82
2022/05/16 08:58:06;;;;;;;3.70;1.07;;;;;;;22.30;36.49;99163.44;2173423;81;21553;-80
2022/05/16 09:01:07;;;;;;;2.47;1.10;;;;;;;22.11;34.91;99166.09;2155485;81;21110;-81
2022/05/16 09:04:12;;;;;;;2.02;1.42;;;;;;;21.87;35.21;99162.77;2133282;82;21101;-81
2022/05/16 09:07:14;;;;;;;3.65;1.50;;;;;;;21.75;35.38;99165.48;2169996;80;21647;-82
2022/05/16 09:10:16;;;;;;;1.92;1.35;;;;;;;21.79;35.65;99164.49;2177631;80;22241;-80
2022/05/16 09:13:18;;;;;;;2.90;0.90;;;;;;;21.86;35.56;99169.14;2163856;81;21044;-82
2022/05/16 09:16:20;;;;;;;2.12;1.10;;;;;;;21.78;35.17;99166.88;2171272;81;21103;-82
2022/05/16 09:19:21;;;;;;;2.62;1.32;;;;;;;21.68;35.18;99159.52;2127859;82;21026;-81
2022/05/16 09:22:23;;;;;;;2.87;1.00;;;;;;;21.52;35.34;99158.97;2164866;80;21107;-82
2022/05/16 09:25:25;;;;;;;1.92;1.22;;;;;;;21.50;35.76;99164.54;2182929;80;21113;-81
2022/05/16 09:28:35;;;;;;;2.10;1.60;;;;;;;21.55;35.88;99160.61;2161714;80;21029;-78
2022/05/16 09:31:39;;;;;;;2.00;1.07;;;;;;;21.66;36.14;99162.12;2191047;80;21021;-81
2022/05/16 09:34:40;;;;;;;4.37;1.42;;;;;;;21.74;36.10;99172.39;2157155;81;21609;-80
2022/05/16 09:37:42;;;;;;;2.67;1.37;;;;;;;21.71;35.38;99176.35;2175210;80;21064;-80
2022/05/16 09:40:43;;;;;;;2.00;1.25;;;;;;;21.59;35.21;99171.63;2171157;80;21060;-81
2022/05/16 09:43:45;;;;;;;1.47;1.05;;;;;;;21.63;36.43;99164.75;2158589;80;21010;-81
2022/05/16 09:46:47;;;;;;;2.40;1.30;;;;;;;21.76;35.53;99161.80;2181553;80;21109;-80
2022/05/16 09:49:48;;;;;;;2.55;1.32;;;;;;;21.83;35.91;99165.61;2160153;80;21042;-80
2022/05/16 09:52:50;;;;;;;2.00;1.22;;;;;;;22.09;36.00;99163.67;2159427;80;21084;-82
2022/05/16 09:55:53;;;;;;;1.30;1.05;;;;;;;22.18;35.50;99165.40;2158131;80;21113;-80
2022/05/16 09:58:56;;;;;;;4.08;1.57;;;;;;;22.34;35.77;99159.25;2146115;81;21585;-79
2022/05/16 10:02:00;;;;;;;3.77;1.62;;;;;;;22.51;35.87;99157.88;2173785;80;21025;-81
2022/05/16 10:05:01;;;;;;;2.17;1.25;;;;;;;22.58;35.87;99151.81;2156166;80;21571;-81
2022/05/16 10:08:04;;;;;;;1.90;1.22;;;;;;;22.46;35.29;99156.47;2166796;80;21074;-81
2022/05/16 10:11:05;;;;;;;4.30;1.10;;;;;;;22.36;34.94;99151.80;2184435;80;21463;-81
2022/05/16 10:14:07;;;;;;;1.72;1.37;;;;;;;22.21;34.42;99146.23;2173633;80;21094;-83
2022/05/16 10:17:09;;;;;;;2.40;1.25;;;;;;;22.31;34.89;99145.08;2181896;80;21042;-80
2022/05/16 10:20:11;;;;;;;2.35;1.30;;;;;;;22.52;34.99;99144.02;2189591;80;21129;-84
2022/05/16 10:23:13;;;;;;;1.82;1.17;;;;;;;22.52;34.33;99140.81;2206870;80;21117;-81
2022/05/16 10:26:14;;;;;;;4.12;1.00;;;;;;;22.68;34.59;99134.63;2207205;81;21044;-82
2022/05/16 10:29:16;;;;;;;1.47;1.02;;;;;;;22.83;33.68;99137.99;2195820;80;21567;-82
2022/05/16 10:35:38;;;;;;;2.58;1.40;;;;;;;23.10;33.95;99141.27;2161390;80;21118;-84
2022/05/16 10:38:40;;;;;;;1.87;1.32;;;;;;;23.01;32.85;99143.58;2183435;80;21450;-84
2022/05/16 10:41:42;;;;;;;1.55;0.80;;;;;;;22.73;33.43;99139.73;2189098;80;21061;-84
2022/05/16 10:44:46;;;;;;;1.52;1.35;;;;;;;22.35;33.30;99136.05;2195611;80;21054;-88
2022/05/16 10:47:48;;;;;;;3.42;1.62;;;;;;;22.06;33.36;99138.00;2185006;80;21157;-87
2022/05/16 10:50:50;;;;;;;1.65;1.50;;;;;;;21.89;33.71;99131.34;2194697;80;20962;-91
2022/05/16 10:53:52;;;;;;;2.50;1.52;;;;;;;21.83;33.33;99126.44;2183228;80;21111;-83
2022/05/16 10:56:59;;;;;;;4.15;1.17;;;;;;;21.79;33.72;99135.17;2168162;81;21080;-82
2022/05/16 11:00:00;;;;;;;2.33;1.12;;;;;;;21.98;33.93;99125.08;2176306;80;21024;-86
2022/05/16 11:03:02;;;;;;;2.60;1.00;;;;;;;22.01;33.52;99125.38;2182435;80;21568;-83
2022/05/16 11:06:03;;;;;;;2.67;1.50;;;;;;;22.06;33.40;99123.34;2175747;80;21052;-82
2022/05/16 11:09:05;;;;;;;1.12;1.00;;;;;;;22.15;33.18;99125.90;2196468;80;21089;-83
2022/05/16 11:12:08;;;;;;;2.92;1.50;;;;;;;22.26;33.80;99117.52;2172327;80;21065;-81
2022/05/16 11:15:12;;;;;;;3.62;1.30;;;;;;;22.36;33.11;99115.79;2203113;80;21057;-82
2022/05/16 11:18:13;;;;;;;3.25;1.40;;;;;;;22.29;32.83;99121.81;2194379;80;21141;-83
2022/05/16 11:21:18;;;;;;;2.10;1.00;;;;;;;22.17;32.74;99114.45;2197664;80;20970;-84
2022/05/16 11:24:19;;;;;;;2.37;1.55;;;;;;;22.22;32.80;99108.38;2181137;80;21093;-82
2022/05/16 11:27:21;;;;;;;1.82;1.30;;;;;;;22.48;33.08;99106.33;2185363;80;21093;-82
2022/05/16 11:30:23;;;;;;;3.85;1.15;;;;;;;22.75;33.12;99110.40;2206626;80;21012;-82
2022/05/16 11:33:25;;;;;;;2.25;1.72;;;;;;;22.85;32.33;99109.74;2170595;80;21077;-83
2022/05/16 11:36:27;;;;;;;2.90;1.72;;;;;;;22.98;32.47;99110.70;2180551;80;21646;-85
2022/05/16 11:39:29;;;;;;;2.10;1.10;;;;;;;22.99;31.61;99114.45;2190841;80;21125;-85
2022/05/16 11:42:33;;;;;;;2.27;1.45;;;;;;;22.96;31.89;99110.16;2198201;80;21013;-83
2022/05/16 11:45:34;;;;;;;2.58;1.45;;;;;;;23.07;31.88;99101.72;2182716;80;21160;-83
2022/05/16 11:48:37;;;;;;;3.98;1.60;;;;;;;23.24;31.81;99095.22;2177769;80;21848;-83
2022/05/16 11:51:40;;;;;;;5.67;1.62;;;;;;;23.38;31.47;99093.47;2200460;80;21080;-82
2022/05/16 11:54:44;;;;;;;3.60;1.30;;;;;;;23.38;30.07;99088.92;2173429;80;21526;-82
2022/05/16 12:01:07;;;;;;;2.45;1.20;;;;;;;23.60;31.12;99079.54;2200153;80;21164;-85
2022/05/16 12:04:11;;;;;;;1.98;1.50;;;;;;;23.77;31.20;99072.19;2197505;80;21037;-84
2022/05/16 12:07:12;;;;;;;1.92;1.35;;;;;;;23.83;30.97;99071.14;2191736;80;21132;-84
2022/05/16 12:10:14;;;;;;;3.42;1.70;;;;;;;23.88;30.49;99069.05;2182927;80;21152;-84
2022/05/16 12:13:19;;;;;;;3.70;1.80;;;;;;;23.76;30.40;99071.88;2186072;80;21034;-82
2022/05/16 12:16:21;;;;;;;4.40;1.87;;;;;;;23.69;30.63;99082.02;2191810;80;21567;-83
2022/05/16 12:19:24;;;;;;;3.05;1.30;;;;;;;23.77;31.56;99073.52;2193415;81;21010;-82
2022/05/16 12:22:26;;;;;;;5.75;1.50;;;;;;;23.64;30.61;99079.82;2179101;81;21105;-84
2022/05/16 12:25:28;;;;;;;3.50;1.57;;;;;;;23.48;30.59;99078.86;2195550;81;20990;-85
2022/05/16 12:28:30;;;;;;;2.77;1.40;;;;;;;23.24;30.76;99081.06;2186862;81;21100;-84
2022/05/16 12:31:32;;;;;;;2.22;1.32;;;;;;;23.14;31.08;99079.11;2187981;81;21002;-83
2022/05/16 12:34:38;;;;;;;3.65;2.05;;;;;;;23.16;31.29;99080.98;2166306;81;21036;-79
2022/05/16 12:37:38;;;;;;;3.40;1.40;;;;;;;23.20;31.20;99074.59;2164492;80;21040;-80
2022/05/16 12:40:39;;;;;;;3.12;1.37;;;;;;;23.31;31.14;99086.18;2175981;80;21024;-79
2022/05/16 12:43:41;;;;;;;1.62;1.10;;;;;;;23.23;31.16;99074.92;2186194;80;21505;-81
2022/05/16 12:46:43;;;;;;;2.00;1.20;;;;;;;23.17;30.81;99064.43;2182809;80;21518;-81
2022/05/16 12:49:49;;;;;;;2.58;1.35;;;;;;;23.15;31.19;99062.55;2179508;80;21002;-81
2022/05/16 12:52:48;;;;;;;1.80;1.35;;;;;;;23.19;31.08;99054.30;2200577;80;21069;-80
2022/05/16 12:55:50;;;;;;;2.67;1.25;;;;;;;23.40;31.18;99052.06;2164472;80;21101;-83
2022/05/16 12:58:52;;;;;;;3.02;1.40;;;;;;;23.45;30.86;99062.81;2207093;80;21017;-86
2022/05/16 13:01:54;;;;;;;1.98;1.75;;;;;;;23.27;30.72;99073.88;2199305;80;21468;-85
2022/05/16 13:04:55;;;;;;;3.10;1.87;;;;;;;23.24;30.95;99062.37;2199157;80;21043;-88
2022/05/16 13:07:57;;;;;;;3.92;1.70;;;;;;;23.27;31.11;99061.31;2187259;80;21048;-85
2022/05/16 13:10:59;;;;;;;5.55;1.52;;;;;;;23.29;30.57;99061.06;2174503;80;21124;-82
2022/05/16 13:14:00;;;;;;;2.50;1.20;;;;;;;23.46;30.40;99057.73;2208386;80;21612;-84
2022/05/16 13:17:02;;;;;;;3.75;1.55;;;;;;;23.59;30.11;99055.69;2195737;80;21544;-83
2022/05/16 13:20:04;;;;;;;2.25;1.25;;;;;;;23.53;29.73;99064.21;2174807;80;21112;-83
2022/05/16 13:23:09;;;;;;;3.58;1.30;;;;;;;23.45;29.57;99055.33;2175549;80;21363;-82
2022/05/16 13:29:34;;;;;;;2.75;1.30;;;;;;;23.43;29.12;99042.75;2201011;80;21112;-83
2022/05/16 13:32:33;;;;;;;4.53;1.15;;;;;;;23.43;29.48;99039.55;2184175;80;21097;-83
2022/05/16 13:35:36;;;;;;;2.45;1.30;;;;;;;23.55;29.60;99040.17;2194619;80;20986;-83
2022/05/16 13:38:37;;;;;;;3.90;1.60;;;;;;;23.60;29.57;99035.44;2175261;80;21560;-82
2022/05/16 13:41:39;;;;;;;4.55;1.67;;;;;;;23.56;29.71;99036.44;2185678;81;21066;-87
2022/05/16 13:44:41;;;;;;;3.33;1.30;;;;;;;23.63;29.85;99032.78;2207315;80;21045;-84
2022/05/16 13:47:44;;;;;;;4.97;2.02;;;;;;;23.71;29.54;99034.98;2177342;80;21068;-82
2022/05/16 13:50:46;;;;;;;4.40;1.50;;;;;;;23.63;29.62;99028.77;2169595;80;21055;-80
2022/05/16 13:53:48;;;;;;;2.70;1.60;;;;;;;23.59;29.79;99024.95;2182226;80;21109;-81
2022/05/16 13:56:53;;;;;;;2.15;1.25;;;;;;;23.54;29.85;99021.20;2202425;80;21009;-80
2022/05/16 13:59:54;;;;;;;3.95;1.77;;;;;;;23.58;29.87;99013.99;2201590;80;21049;-80
2022/05/16 14:02:56;;;;;;;4.40;1.95;;;;;;;23.60;30.08;99011.39;2194549;80;21778;-83
2022/05/16 14:06:00;;;;;;;3.77;1.70;;;;;;;23.62;30.20;99003.91;2184694;80;21172;-80
2022/05/16 14:09:03;;;;;;;5.72;1.40;;;;;;;23.71;30.20;99003.70;2208519;80;21512;-81
2022/05/16 14:12:09;;;;;;;4.17;1.30;;;;;;;23.82;30.20;99000.02;2189351;80;21129;-80
2022/05/16 14:15:10;;;;;;;4.37;1.25;;;;;;;23.92;30.00;99000.61;2186534;80;21096;-80
2022/05/16 14:18:14;;;;;;;2.55;1.45;;;;;;;24.03;29.82;99005.47;2175792;80;21075;-81
2022/05/16 14:21:16;;;;;;;2.80;1.57;;;;;;;24.15;29.90;99005.28;2198925;80;21001;-82
2022/05/16 14:24:17;;;;;;;1.52;1.25;;;;;;;24.20;29.76;98999.41;2176944;80;21033;-79
2022/05/16 14:27:22;;;;;;;3.92;1.57;;;;;;;24.26;30.00;98989.00;2191091;80;21093;-81
2022/05/16 14:30:24;;;;;;;4.53;2.08;;;;;;;24.28;30.01;98990.08;2174375;80;21084;-80
2022/05/16 14:33:26;;;;;;;6.05;1.60;;;;;;;24.26;30.15;98996.23;2197699;81;21033;-81
2022/05/16 14:36:28;;;;;;;7.42;2.17;;;;;;;24.06;29.72;98991.59;2188716;80;21060;-81
2022/05/16 14:39:30;;;;;;;4.80;1.77;;;;;;;23.94;30.31;98988.31;2201773;80;21082;-81
2022/05/16 14:42:32;;;;;;;8.25;1.95;;;;;;;23.93;30.16;98989.38;2177664;80;21083;-82
2022/05/16 14:48:54;;;;;;;4.80;1.60;;;;;;;23.89;31.05;98978.41;2176356;80;21017;-82
2022/05/16 14:52:02;;;;;;;2.52;1.72;;;;;;;23.95;31.28;98978.69;2205254;80;21119;-82
2022/05/16 14:55:02;;;;;;;2.90;1.90;;;;;;;24.07;31.04;98981.97;2201661;80;21548;-82
2022/05/16 14:58:04;;;;;;;1.90;1.35;;;;;;;24.24;30.79;98986.33;2179028;80;21076;-82